Time;durP1;ratioP1;P1;durP2;ratioP2;P2;SDS_P1;SDS_P2;PMS_P1;PMS_P2;Temp;Humidity;BMP_temperature;BMP_pressure;BME280_temperature;BME280_humidity;BME280_pressure;Samples;Min_cycle;Max_cycle;Signal;HPM_P1;HPM_P2
2022/07/07 00:02:43;;;;;;;1.65;1.00;;;;;;;19.91;50.74;100050.25;4344669;32;34939;-82
2022/07/07 00:05:29;;;;;;;1.42;1.08;;;;;;;19.94;50.83;100046.75;4346146;32;34911;-81
2022/07/07 00:08:16;;;;;;;3.37;1.58;;;;;;;19.82;49.69;100038.53;4334578;32;34989;-81
2022/07/07 00:11:02;;;;;;;4.22;1.30;;;;;;;19.72;52.04;100049.06;4341949;32;34745;-81
2022/07/07 00:13:49;;;;;;;1.67;1.17;;;;;;;19.47;51.82;100054.00;4353033;32;34511;-81
2022/07/07 00:16:36;;;;;;;1.58;1.12;;;;;;;18.86;53.93;100055.25;4349258;32;34939;-82
2022/07/07 00:19:23;;;;;;;2.03;1.10;;;;;;;18.65;53.52;100049.12;4352278;32;33962;-82
2022/07/07 00:22:09;;;;;;;3.65;1.33;;;;;;;17.42;58.29;100056.97;4347516;32;35627;-81
2022/07/07 00:24:56;;;;;;;2.12;1.10;;;;;;;18.23;55.31;100054.28;4345471;32;35978;-82
2022/07/07 00:27:42;;;;;;;1.33;1.05;;;;;;;18.06;55.13;100055.38;4354497;32;35421;-82
2022/07/07 00:30:29;;;;;;;2.35;1.12;;;;;;;18.13;56.03;100050.03;4347554;32;35187;-81
2022/07/07 00:33:16;;;;;;;2.40;1.20;;;;;;;18.56;54.14;100043.75;4344558;32;34635;-82
2022/07/07 00:36:03;;;;;;;2.30;1.30;;;;;;;18.59;53.66;100047.78;4344278;32;35002;-82
2022/07/07 00:38:50;;;;;;;2.47;1.30;;;;;;;17.83;56.00;100050.34;4345547;32;34841;-82
2022/07/07 00:41:36;;;;;;;2.75;1.20;;;;;;;19.00;52.17;100035.38;4351697;32;35260;-82
2022/07/07 00:44:23;;;;;;;2.28;1.17;;;;;;;18.90;52.58;100033.16;4345418;32;34704;-82
2022/07/07 00:47:09;;;;;;;3.80;1.40;;;;;;;19.21;51.65;100043.47;4352817;32;35619;-82
2022/07/07 00:49:56;;;;;;;3.62;1.25;;;;;;;18.84;52.90;100052.06;4355196;32;35870;-81
2022/07/07 00:52:42;;;;;;;2.97;1.60;;;;;;;19.03;52.50;100050.53;4335838;32;34298;-81
2022/07/07 00:55:29;;;;;;;2.80;1.25;;;;;;;19.13;51.83;100038.09;4356736;32;35229;-82
2022/07/07 00:58:15;;;;;;;2.62;1.23;;;;;;;19.04;52.18;100041.84;4349646;32;35030;-82
2022/07/07 01:01:02;;;;;;;1.77;1.10;;;;;;;19.09;52.71;100046.31;4349751;32;34892;-81
2022/07/07 01:03:50;;;;;;;2.20;1.30;;;;;;;18.75;54.48;100053.38;4351008;32;34565;-82
2022/07/07 01:06:37;;;;;;;4.87;1.60;;;;;;;18.95;53.67;100057.06;4342371;32;34519;-82
2022/07/07 01:09:24;;;;;;;2.15;1.33;;;;;;;18.85;53.84;100045.31;4356035;32;35510;-82
2022/07/07 01:12:10;;;;;;;3.53;1.30;;;;;;;18.58;54.70;100051.69;4345647;32;34857;-82
2022/07/07 01:14:57;;;;;;;3.17;1.30;;;;;;;17.29;61.57;100045.06;4343484;32;34342;-81
2022/07/07 01:17:43;;;;;;;2.08;1.17;;;;;;;17.47;60.10;100049.19;4349381;32;34751;-81
2022/07/07 01:20:31;;;;;;;3.95;1.15;;;;;;;18.00;58.03;100048.47;4341109;32;34905;-82
2022/07/07 01:23:18;;;;;;;2.50;1.75;;;;;;;17.83;57.73;100053.13;4353752;32;34972;-81
2022/07/07 01:26:05;;;;;;;5.50;1.45;;;;;;;17.92;58.38;100051.00;4348126;32;34276;-81
2022/07/07 01:28:51;;;;;;;2.62;1.30;;;;;;;18.23;57.02;100054.28;4347018;32;34780;-81
2022/07/07 01:31:37;;;;;;;1.58;1.25;;;;;;;18.49;55.96;100048.28;4353271;32;36039;-82
2022/07/07 01:34:24;;;;;;;3.35;1.55;;;;;;;18.58;55.03;100043.38;4352321;32;34452;-82
2022/07/07 01:37:12;;;;;;;2.60;1.50;;;;;;;18.58;56.43;100052.50;4353302;32;33228;-82
2022/07/07 01:39:59;;;;;;;2.92;1.37;;;;;;;18.32;57.26;100050.19;4341761;32;34180;-82
2022/07/07 01:42:46;;;;;;;2.40;1.50;;;;;;;18.11;58.14;100046.81;4347112;32;34573;-82
2022/07/07 01:45:32;;;;;;;1.95;1.48;;;;;;;18.11;57.76;100050.41;4354275;32;35772;-82
2022/07/07 01:48:19;;;;;;;2.37;1.45;;;;;;;18.30;57.11;100058.06;4347880;32;33195;-82
2022/07/07 01:51:06;;;;;;;3.05;1.50;;;;;;;18.59;56.38;100056.09;4346068;32;35584;-81
2022/07/07 01:53:53;;;;;;;2.58;1.58;;;;;;;17.69;60.18;100060.97;4353223;32;34815;-81
2022/07/07 01:56:39;;;;;;;4.45;1.50;;;;;;;17.95;59.46;100058.63;4356121;32;35866;-81
2022/07/07 01:59:26;;;;;;;3.08;1.40;;;;;;;16.68;64.86;100051.31;4349147;32;34401;-81
2022/07/07 02:02:13;;;;;;;1.77;1.40;;;;;;;17.68;61.07;100060.16;4351361;32;34330;-81
2022/07/07 02:05:00;;;;;;;3.05;1.48;;;;;;;17.67;60.91;100060.50;4352584;32;34948;-81
2022/07/07 02:07:47;;;;;;;3.80;1.70;;;;;;;17.89;60.43;100057.25;4347198;32;34504;-81
2022/07/07 02:13:44;;;;;;;2.45;1.60;;;;;;;17.92;60.48;100053.78;4348224;32;34628;-81
2022/07/07 02:16:33;;;;;;;2.22;1.50;;;;;;;17.84;60.44;100046.41;4351989;32;34922;-82
2022/07/07 02:19:19;;;;;;;3.37;1.57;;;;;;;17.17;63.67;100047.84;4340361;32;35747;-82
2022/07/07 02:22:06;;;;;;;3.25;1.70;;;;;;;17.45;62.51;100054.31;4341909;32;34338;-82
2022/07/07 02:24:52;;;;;;;4.10;1.52;;;;;;;17.66;61.64;100054.16;4352151;32;34651;-81
2022/07/07 02:27:39;;;;;;;2.22;1.62;;;;;;;17.20;63.20;100052.69;4354293;32;35543;-81
2022/07/07 02:30:25;;;;;;;4.45;1.58;;;;;;;17.35;63.35;100053.94;4358930;32;34973;-82
2022/07/07 02:33:11;;;;;;;2.53;1.40;;;;;;;16.97;65.56;100060.63;4344133;32;34016;-82
2022/07/07 02:35:58;;;;;;;2.72;1.70;;;;;;;17.45;63.35;100057.06;4352021;32;34665;-81
2022/07/07 02:38:45;;;;;;;2.62;1.67;;;;;;;17.65;62.37;100065.59;4344443;32;35574;-82
2022/07/07 02:41:32;;;;;;;2.65;1.60;;;;;;;17.67;61.71;100061.34;4341892;32;34587;-81
2022/07/07 02:44:18;;;;;;;3.12;1.50;;;;;;;17.62;61.79;100056.03;4345609;32;34465;-81
2022/07/07 02:47:04;;;;;;;2.25;1.60;;;;;;;17.29;62.83;100061.69;4358056;32;34262;-82
2022/07/07 02:49:52;;;;;;;3.78;1.70;;;;;;;17.03;62.76;100062.00;4343979;32;35833;-82
2022/07/07 02:52:38;;;;;;;5.53;1.90;;;;;;;15.91;68.03;100072.97;4343762;32;34950;-81
2022/07/07 02:55:25;;;;;;;3.60;1.90;;;;;;;16.52;66.21;100066.94;4349480;32;34492;-81
2022/07/07 02:58:12;;;;;;;3.35;2.00;;;;;;;16.67;65.75;100062.69;4350870;32;34673;-81
2022/07/07 03:00:59;;;;;;;5.97;1.75;;;;;;;16.65;65.71;100074.13;4348619;32;35955;-81
2022/07/07 03:03:45;;;;;;;2.12;1.60;;;;;;;16.77;66.18;100067.84;4357704;32;34848;-82
2022/07/07 03:06:32;;;;;;;3.05;1.42;;;;;;;16.79;64.57;100068.28;4355544;32;34354;-82
2022/07/07 03:09:18;;;;;;;5.32;1.60;;;;;;;16.54;65.50;100072.94;4356993;32;33565;-82
2022/07/07 03:12:05;;;;;;;1.90;1.50;;;;;;;16.55;63.13;100069.81;4358444;32;34956;-81
2022/07/07 03:14:51;;;;;;;2.67;1.55;;;;;;;16.06;66.41;100066.84;4357823;32;35540;-82
2022/07/07 03:17:46;;;;;;;3.78;1.73;;;;;;;16.81;63.32;100066.81;4356919;32;35351;-82
2022/07/07 03:20:32;;;;;;;2.37;1.70;;;;;;;16.94;63.77;100064.09;4342527;32;34462;-81
2022/07/07 03:23:18;;;;;;;2.62;1.60;;;;;;;16.74;64.27;100063.78;4358081;32;36017;-81
2022/07/07 03:26:05;;;;;;;3.58;1.80;;;;;;;16.07;67.53;100054.63;4345401;32;34816;-81
2022/07/07 03:28:52;;;;;;;2.97;1.90;;;;;;;15.84;68.56;100061.63;4343604;32;34426;-81
2022/07/07 03:31:39;;;;;;;4.15;1.65;;;;;;;16.38;66.42;100064.44;4358537;32;34233;-79
2022/07/07 03:34:25;;;;;;;3.62;1.83;;;;;;;16.79;64.64;100071.06;4344318;32;33538;-78
2022/07/07 03:37:12;;;;;;;2.83;1.65;;;;;;;16.40;66.04;100067.69;4358669;32;35685;-78
2022/07/07 03:39:58;;;;;;;2.85;1.48;;;;;;;16.56;65.56;100063.16;4358595;32;35350;-78
2022/07/07 03:42:45;;;;;;;2.50;1.67;;;;;;;16.83;64.45;100063.72;4357322;32;34676;-78
2022/07/07 03:45:31;;;;;;;3.87;1.83;;;;;;;17.10;63.10;100062.22;4347270;32;35619;-78
2022/07/07 03:48:17;;;;;;;2.90;1.80;;;;;;;17.23;63.07;100071.37;4356704;32;34909;-78
2022/07/07 03:51:04;;;;;;;2.67;1.70;;;;;;;17.62;61.61;100075.41;4358469;32;34995;-78
2022/07/07 03:53:50;;;;;;;3.22;1.65;;;;;;;17.38;61.64;100065.13;4346474;32;36068;-78
2022/07/07 03:56:37;;;;;;;3.62;1.90;;;;;;;17.71;61.32;100072.53;4357981;32;34797;-78
2022/07/07 03:59:23;;;;;;;2.70;1.92;;;;;;;17.76;61.73;100072.28;4357541;32;34143;-78
2022/07/07 04:02:10;;;;;;;2.67;2.15;;;;;;;17.68;62.96;100068.47;4357738;32;35281;-78
2022/07/07 04:04:56;;;;;;;2.85;1.83;;;;;;;17.65;63.20;100062.84;4346179;32;34736;-78
2022/07/07 04:07:45;;;;;;;4.53;2.10;;;;;;;17.65;63.40;100060.06;4354217;32;34926;-78
2022/07/07 04:10:31;;;;;;;3.10;1.85;;;;;;;17.64;64.22;100055.66;4354476;32;34601;-79
2022/07/07 04:13:18;;;;;;;3.15;1.95;;;;;;;17.71;64.21;100065.00;4332327;32;34260;-79
2022/07/07 04:16:04;;;;;;;4.57;2.03;;;;;;;17.76;64.32;100066.75;4351146;32;34403;-79
2022/07/07 04:18:51;;;;;;;3.08;1.77;;;;;;;17.73;64.74;100061.88;4356303;32;35488;-79
2022/07/07 04:21:37;;;;;;;2.70;1.85;;;;;;;17.87;64.71;100065.13;4343270;32;34660;-79
2022/07/07 04:24:23;;;;;;;4.07;1.75;;;;;;;17.97;64.19;100066.59;4343441;32;35275;-79
2022/07/07 04:27:10;;;;;;;3.00;1.95;;;;;;;18.01;63.67;100061.16;4346385;32;33557;-79
2022/07/07 04:29:56;;;;;;;3.72;2.00;;;;;;;17.91;63.98;100063.28;4353544;32;34947;-79
2022/07/07 04:32:42;;;;;;;3.20;1.70;;;;;;;16.02;70.50;100046.53;4350763;32;34998;-79
2022/07/07 04:35:28;;;;;;;5.22;1.95;;;;;;;16.28;68.77;100040.81;4352301;32;34324;-79
2022/07/07 04:38:15;;;;;;;3.92;1.90;;;;;;;16.40;69.18;100051.09;4348756;32;34630;-79
2022/07/07 04:41:01;;;;;;;2.97;1.70;;;;;;;17.35;65.49;100048.41;4351895;32;34902;-79
2022/07/07 04:43:47;;;;;;;3.10;1.80;;;;;;;17.79;64.05;100052.22;4346627;32;34379;-79
2022/07/07 04:46:34;;;;;;;3.58;1.83;;;;;;;18.14;62.93;100054.44;4343959;32;33147;-81
2022/07/07 04:49:21;;;;;;;3.50;1.75;;;;;;;18.55;61.74;100053.19;4332079;32;34351;-80
2022/07/07 04:52:09;;;;;;;3.83;2.08;;;;;;;18.57;61.38;100058.41;4344225;32;36079;-79
2022/07/07 04:54:56;;;;;;;5.70;1.83;;;;;;;18.98;58.89;100061.91;4343950;32;35731;-80
2022/07/07 04:57:42;;;;;;;4.62;2.08;;;;;;;18.94;58.55;100050.69;4356587;32;34375;-78
2022/07/07 05:00:29;;;;;;;3.92;1.70;;;;;;;18.50;59.57;100060.97;4343841;32;34304;-79
2022/07/07 05:03:15;;;;;;;3.58;1.98;;;;;;;19.30;57.62;100048.84;4344144;32;35018;-79
2022/07/07 05:06:02;;;;;;;3.67;2.10;;;;;;;19.06;58.38;100049.81;4345187;32;34465;-79
2022/07/07 05:08:49;;;;;;;3.25;1.80;;;;;;;19.57;56.93;100051.84;4334006;32;33790;-79
2022/07/07 05:11:36;;;;;;;4.60;1.92;;;;;;;18.84;59.67;100060.38;4356351;32;35007;-78
2022/07/07 05:14:22;;;;;;;2.37;1.77;;;;;;;19.27;58.59;100050.34;4344617;32;34520;-78
2022/07/07 05:17:08;;;;;;;4.68;2.20;;;;;;;19.59;57.72;100050.31;4356788;32;35361;-77
2022/07/07 05:19:54;;;;;;;3.62;1.90;;;;;;;20.03;58.22;100050.09;4347748;32;34480;-78
2022/07/07 05:22:41;;;;;;;3.60;2.00;;;;;;;20.22;57.26;100052.09;4348814;32;34211;-79
2022/07/07 05:25:27;;;;;;;4.47;1.55;;;;;;;20.06;56.98;100045.78;4343635;32;35008;-79
2022/07/07 05:28:13;;;;;;;3.00;1.83;;;;;;;20.34;57.58;100051.16;4344660;32;35487;-79
2022/07/07 05:31:02;;;;;;;3.67;1.73;;;;;;;20.47;56.63;100046.25;4346041;32;33898;-79
2022/07/07 05:33:50;;;;;;;4.45;2.10;;;;;;;20.59;58.43;100046.91;4344424;32;35698;-80
2022/07/07 05:36:36;;;;;;;3.80;1.75;;;;;;;20.02;55.45;100051.28;4350898;32;35812;-80
2022/07/07 05:39:24;;;;;;;4.90;2.03;;;;;;;20.86;55.01;100050.59;4344093;32;35819;-77
2022/07/07 05:42:10;;;;;;;4.43;1.90;;;;;;;20.37;55.23;100054.00;4351177;32;35456;-78
2022/07/07 05:44:56;;;;;;;2.25;1.83;;;;;;;20.75;53.22;100048.78;4352164;32;34230;-78
2022/07/07 05:47:43;;;;;;;3.85;2.30;;;;;;;20.76;53.13;100055.97;4350327;32;35051;-79
2022/07/07 05:50:29;;;;;;;3.03;1.80;;;;;;;21.14;49.61;100062.59;4348481;32;35415;-77
2022/07/07 05:53:15;;;;;;;2.67;1.80;;;;;;;21.31;50.29;100050.94;4349114;32;35214;-77
2022/07/07 05:56:01;;;;;;;4.07;2.30;;;;;;;21.70;48.24;100051.56;4350192;32;35786;-79
2022/07/07 05:58:47;;;;;;;8.38;2.17;;;;;;;21.79;46.46;100052.09;4351474;32;34082;-82
2022/07/07 06:01:34;;;;;;;3.92;1.92;;;;;;;21.98;47.33;100051.16;4338623;32;34471;-82
2022/07/07 06:04:20;;;;;;;4.57;1.90;;;;;;;21.65;46.84;100051.88;4351778;32;34414;-82
2022/07/07 06:07:07;;;;;;;4.43;2.08;;;;;;;21.06;49.31;100048.56;4343722;32;34201;-83
2022/07/07 06:09:53;;;;;;;3.08;1.87;;;;;;;21.82;47.55;100049.75;4350392;32;35082;-83
2022/07/07 06:12:43;;;;;;;5.47;2.28;;;;;;;22.42;46.95;100058.91;4347794;32;35793;-83
2022/07/07 06:15:33;;;;;;;2.95;1.65;;;;;;;22.35;46.89;100058.03;4348248;32;34430;-83
2022/07/07 06:18:19;;;;;;;5.68;2.87;;;;;;;22.47;47.22;100046.63;4344903;32;35590;-83
2022/07/07 06:21:06;;;;;;;3.35;1.98;;;;;;;22.43;47.13;100052.16;4343500;32;34933;-82
2022/07/07 06:23:52;;;;;;;3.37;1.80;;;;;;;22.75;47.58;100053.69;4344759;32;34891;-81
2022/07/07 06:26:39;;;;;;;3.08;2.00;;;;;;;22.48;45.43;100053.00;4340891;32;33909;-81
2022/07/07 06:29:25;;;;;;;3.60;1.95;;;;;;;22.96;46.42;100050.34;4350434;32;35651;-79
2022/07/07 06:32:14;;;;;;;3.40;1.77;;;;;;;23.42;46.27;100061.09;4353931;32;34966;-81
2022/07/07 06:35:00;;;;;;;2.85;1.50;;;;;;;23.30;45.00;100054.63;4352370;32;34999;-82
2022/07/07 06:37:47;;;;;;;4.35;1.80;;;;;;;23.79;42.94;100049.78;4354598;32;34966;-82
2022/07/07 06:40:33;;;;;;;5.95;1.83;;;;;;;23.62;43.88;100054.03;4342435;32;34708;-84
2022/07/07 06:43:19;;;;;;;4.47;1.87;;;;;;;23.56;42.41;100052.81;4352169;32;35096;-84
2022/07/07 06:46:06;;;;;;;4.43;2.05;;;;;;;23.85;41.87;100051.03;4349394;32;35721;-79
2022/07/07 06:48:52;;;;;;;2.58;1.60;;;;;;;23.68;41.36;100046.09;4346968;32;33934;-80
2022/07/07 06:51:38;;;;;;;4.03;1.90;;;;;;;23.92;42.42;100056.66;4349018;32;35597;-79
2022/07/07 06:54:25;;;;;;;4.47;1.77;;;;;;;23.68;43.03;100052.50;4350024;32;34183;-83
2022/07/07 06:57:12;;;;;;;3.28;1.62;;;;;;;23.58;40.73;100047.63;4353622;32;34900;-82
2022/07/07 06:59:59;;;;;;;3.65;1.85;;;;;;;24.15;42.65;100050.78;4356574;32;34991;-80
2022/07/07 07:02:46;;;;;;;5.68;2.03;;;;;;;24.17;44.38;100045.59;4360429;32;34611;-80
2022/07/07 07:05:34;;;;;;;3.05;1.85;;;;;;;24.51;41.31;100042.56;4348611;32;35131;-80
2022/07/07 07:08:20;;;;;;;5.40;1.92;;;;;;;24.05;40.07;100048.75;4365188;32;35144;-79
2022/07/07 07:11:07;;;;;;;3.08;1.80;;;;;;;24.02;41.68;100052.31;4357172;32;34435;-77
2022/07/07 07:13:56;;;;;;;2.33;1.70;;;;;;;23.24;40.84;100045.00;4358115;32;34789;-77
2022/07/07 07:16:42;;;;;;;4.65;1.90;;;;;;;24.26;42.85;100053.63;4348557;32;35997;-77
2022/07/07 07:19:28;;;;;;;3.22;2.10;;;;;;;24.35;40.79;100053.25;4356967;32;35967;-77
2022/07/07 07:22:15;;;;;;;3.60;1.83;;;;;;;24.72;40.65;100041.00;4358642;32;35238;-76
2022/07/07 07:25:01;;;;;;;2.60;1.60;;;;;;;24.86;40.22;100041.00;4350225;32;35572;-77
2022/07/07 07:27:47;;;;;;;6.85;2.10;;;;;;;25.01;40.63;100039.03;4346290;32;34918;-76
2022/07/07 07:30:34;;;;;;;4.07;2.20;;;;;;;24.68;41.30;100038.19;4348842;32;36167;-76
2022/07/07 07:33:20;;;;;;;5.85;1.90;;;;;;;23.55;40.83;100034.44;4360744;32;33421;-76
2022/07/07 07:36:08;;;;;;;4.90;2.08;;;;;;;24.36;40.44;100030.47;4359017;32;34701;-77
2022/07/07 07:38:54;;;;;;;5.12;2.45;;;;;;;24.86;40.79;100033.41;4358602;32;35805;-79
2022/07/07 07:41:41;;;;;;;6.82;2.28;;;;;;;24.99;40.17;100033.00;4359835;32;34880;-81
2022/07/07 07:47:32;;;;;;;3.20;1.95;;;;;;;25.20;40.09;100033.06;4342894;32;34572;-78
2022/07/07 07:50:20;;;;;;;3.15;2.05;;;;;;;25.01;37.40;100030.63;4358552;32;34548;-80
2022/07/07 07:53:06;;;;;;;3.72;2.00;;;;;;;24.90;39.51;100036.19;4357679;32;34880;-81
2022/07/07 07:55:53;;;;;;;5.50;2.20;;;;;;;25.31;36.85;100024.66;4353605;32;34007;-80
2022/07/07 07:58:39;;;;;;;5.12;2.40;;;;;;;24.12;39.10;100034.78;4353798;32;35574;-81
2022/07/07 08:01:26;;;;;;;3.67;2.17;;;;;;;24.73;38.71;100037.78;4358239;32;33911;-78
2022/07/07 08:04:12;;;;;;;4.28;2.45;;;;;;;25.15;37.63;100036.25;4352748;32;35809;-78
2022/07/07 08:06:58;;;;;;;3.42;2.30;;;;;;;24.74;37.33;100036.59;4355933;32;34333;-81
2022/07/07 08:09:45;;;;;;;3.87;2.03;;;;;;;24.85;39.41;100029.00;4355266;32;35677;-75
2022/07/07 08:12:32;;;;;;;3.83;2.08;;;;;;;25.24;37.00;100035.84;4344793;32;35562;-75
2022/07/07 08:15:18;;;;;;;6.30;2.15;;;;;;;25.56;36.30;100033.84;4356213;32;35242;-75
2022/07/07 08:18:04;;;;;;;3.37;2.15;;;;;;;25.87;35.33;100031.38;4333945;32;35721;-75
2022/07/07 08:20:51;;;;;;;4.65;2.12;;;;;;;24.71;37.61;100022.59;4355465;32;34785;-75
2022/07/07 08:23:38;;;;;;;3.75;1.98;;;;;;;24.35;38.74;100025.25;4357460;32;34969;-75
2022/07/07 08:26:25;;;;;;;4.40;1.87;;;;;;;24.03;38.82;100023.16;4357883;32;35525;-76
2022/07/07 08:29:11;;;;;;;4.55;2.25;;;;;;;24.90;38.13;100027.78;4356182;32;34397;-74
2022/07/07 08:31:58;;;;;;;3.33;2.10;;;;;;;25.72;35.75;100024.16;4349697;32;35562;-72
2022/07/07 08:34:45;;;;;;;3.45;1.77;;;;;;;24.77;39.13;100029.41;4355260;32;34578;-72
2022/07/07 08:37:31;;;;;;;3.70;1.87;;;;;;;24.10;39.98;100027.97;4353916;32;34670;-73
2022/07/07 08:40:18;;;;;;;2.83;2.00;;;;;;;24.20;38.92;100022.41;4355501;32;35191;-72
2022/07/07 08:43:04;;;;;;;5.72;1.80;;;;;;;24.46;38.56;100028.94;4351345;32;34414;-72
2022/07/07 08:45:52;;;;;;;3.12;1.90;;;;;;;24.67;38.89;100028.16;4340300;32;34930;-72
2022/07/07 08:48:38;;;;;;;3.50;1.80;;;;;;;25.32;37.81;100017.81;4337815;32;34925;-72
2022/07/07 08:51:25;;;;;;;2.75;1.95;;;;;;;25.75;37.76;100021.34;4355420;32;34077;-73
2022/07/07 08:54:13;;;;;;;2.50;1.90;;;;;;;25.95;36.21;100018.91;4345140;32;34414;-73
2022/07/07 08:57:00;;;;;;;3.90;2.00;;;;;;;25.98;39.11;100012.47;4353121;32;35061;-77
2022/07/07 08:59:46;;;;;;;3.83;1.87;;;;;;;26.11;35.75;100012.03;4344809;32;34844;-75
2022/07/07 09:02:33;;;;;;;3.97;2.15;;;;;;;25.99;36.11;100014.09;4349740;32;33913;-76
2022/07/07 09:05:19;;;;;;;4.60;2.25;;;;;;;24.87;38.34;100017.38;4357360;32;34468;-75
2022/07/07 09:08:19;;;;;;;7.87;2.22;;;;;;;25.19;38.59;100011.00;4340693;32;34876;-74
2022/07/07 09:11:10;;;;;;;7.50;2.50;;;;;;;25.96;38.87;100006.50;4346259;32;35799;-74
2022/07/07 09:14:13;;;;;;;6.65;2.92;;;;;;;26.03;38.17;100006.44;4346086;32;35269;-73
2022/07/07 09:17:00;;;;;;;3.60;2.22;;;;;;;25.34;37.99;99998.59;4344145;32;34624;-73
2022/07/07 09:20:11;;;;;;;3.90;2.53;;;;;;;26.70;36.55;100014.97;4356568;32;35029;-74
2022/07/07 09:22:58;;;;;;;7.60;2.40;;;;;;;25.42;39.00;100005.81;4340185;32;33786;-74
2022/07/07 09:25:48;;;;;;;4.78;2.58;;;;;;;25.65;35.24;100007.38;4356692;32;34375;-76
2022/07/07 09:28:41;;;;;;;6.72;2.67;;;;;;;26.52;36.16;100008.66;4354471;32;34696;-75
2022/07/07 09:31:50;;;;;;;4.57;2.50;;;;;;;25.71;37.22;100012.16;4346293;32;34898;-76
2022/07/07 09:34:37;;;;;;;6.37;2.42;;;;;;;25.30;36.27;100017.41;4357219;32;34814;-77
2022/07/07 09:40:28;;;;;;;4.28;2.33;;;;;;;26.89;31.78;100011.59;4353941;32;34782;-76
2022/07/07 09:43:15;;;;;;;4.18;2.30;;;;;;;27.14;35.15;100019.03;4356102;32;34942;-76
2022/07/07 09:46:19;;;;;;;6.10;2.50;;;;;;;27.00;33.88;100017.13;4344399;32;34583;-76
2022/07/07 09:49:09;;;;;;;4.43;2.50;;;;;;;26.73;32.72;100019.75;4340773;32;34266;-77
2022/07/07 09:51:56;;;;;;;4.37;2.23;;;;;;;26.14;33.55;100009.22;4352919;32;35256;-77
2022/07/07 09:54:47;;;;;;;2.80;2.20;;;;;;;26.01;33.97;100014.50;4341731;32;35932;-74
2022/07/07 09:57:33;;;;;;;3.67;2.17;;;;;;;26.58;34.10;100012.63;4342814;32;35892;-74
2022/07/07 10:00:19;;;;;;;6.95;2.58;;;;;;;26.28;34.27;100010.37;4357400;32;34476;-76
2022/07/07 10:03:06;;;;;;;5.55;2.10;;;;;;;26.10;32.52;99999.19;4347663;32;35586;-76
2022/07/07 10:05:52;;;;;;;4.87;2.10;;;;;;;25.74;34.12;99999.31;4350427;32;35933;-75
2022/07/07 10:08:44;;;;;;;3.47;2.00;;;;;;;26.18;34.29;100006.37;4333570;32;34925;-77
2022/07/07 10:11:39;;;;;;;3.90;1.75;;;;;;;25.57;32.08;100003.75;4343584;32;35251;-75
2022/07/07 10:14:32;;;;;;;5.03;1.90;;;;;;;26.06;31.69;99999.22;4347369;32;34664;-74
2022/07/07 10:17:18;;;;;;;2.30;1.70;;;;;;;26.51;31.05;99998.63;4350739;32;34907;-73
2022/07/07 10:20:05;;;;;;;3.20;2.15;;;;;;;24.69;32.79;100001.34;4346481;32;34591;-74
2022/07/07 10:22:51;;;;;;;2.70;1.73;;;;;;;25.72;32.56;99996.09;4344904;32;34337;-75
2022/07/07 10:25:37;;;;;;;3.78;1.67;;;;;;;26.02;31.47;99992.84;4345704;32;34653;-75
2022/07/07 10:28:53;;;;;;;3.67;1.58;;;;;;;24.22;35.08;99994.03;4342299;32;34923;-75
2022/07/07 10:31:40;;;;;;;3.22;1.70;;;;;;;24.69;34.71;99992.94;4348245;32;36289;-74
2022/07/07 10:34:28;;;;;;;8.20;2.35;;;;;;;25.15;34.28;100001.81;4344143;32;34348;-75
2022/07/07 10:37:15;;;;;;;8.80;1.90;;;;;;;25.36;34.27;100001.81;4346768;32;34716;-74
2022/07/07 10:40:03;;;;;;;3.28;1.92;;;;;;;25.41;34.52;99992.97;4345426;32;35626;-74
2022/07/07 10:43:10;;;;;;;3.53;2.12;;;;;;;25.66;34.79;99998.53;4334184;32;34674;-74
2022/07/07 10:45:57;;;;;;;3.53;1.98;;;;;;;24.92;35.67;99994.56;4341858;32;33827;-76
2022/07/07 10:48:46;;;;;;;5.75;1.90;;;;;;;24.69;35.68;99992.94;4333744;32;35537;-74
2022/07/07 10:51:32;;;;;;;3.72;1.90;;;;;;;25.41;35.61;99990.16;4344293;32;34963;-76
2022/07/07 10:54:36;;;;;;;6.68;2.40;;;;;;;25.26;35.37;99975.38;4353473;32;34888;-74
2022/07/07 10:57:24;;;;;;;6.40;2.30;;;;;;;25.96;35.52;99981.22;4350562;32;35275;-74
2022/07/07 11:00:13;;;;;;;3.10;1.95;;;;;;;25.93;35.63;99979.22;4351142;32;34669;-74
2022/07/07 11:03:05;;;;;;;3.95;2.17;;;;;;;26.53;34.87;99982.16;4357070;32;35123;-75
2022/07/07 11:05:55;;;;;;;3.97;2.15;;;;;;;26.21;35.24;99974.66;4349643;32;33636;-74
2022/07/07 11:08:41;;;;;;;3.25;2.20;;;;;;;26.19;35.02;99968.69;4343330;32;35192;-74
2022/07/07 11:11:28;;;;;;;2.70;2.10;;;;;;;25.49;34.81;99966.50;4354679;32;34651;-74
2022/07/07 11:14:14;;;;;;;3.05;2.20;;;;;;;25.56;35.78;99972.09;4359126;32;35135;-74
2022/07/07 11:17:20;;;;;;;3.87;2.15;;;;;;;25.43;35.96;99968.13;4358642;32;35530;-74
2022/07/07 11:20:08;;;;;;;4.78;2.17;;;;;;;25.15;35.79;99963.34;4357104;32;34895;-74
2022/07/07 11:23:05;;;;;;;2.33;2.05;;;;;;;25.51;35.28;99968.91;4356666;32;34435;-73
2022/07/07 11:25:55;;;;;;;4.35;2.17;;;;;;;25.30;36.18;99964.97;4356500;32;35942;-75
2022/07/07 11:28:42;;;;;;;4.90;1.98;;;;;;;25.07;36.42;99956.94;4358606;32;34893;-77
2022/07/07 11:31:28;;;;;;;2.85;1.90;;;;;;;24.92;36.52;99956.13;4357287;32;35405;-76
2022/07/07 11:34:14;;;;;;;3.97;2.20;;;;;;;25.18;37.03;99959.75;4340590;32;34615;-76
2022/07/07 11:37:19;;;;;;;2.00;1.80;;;;;;;25.88;36.00;99954.38;4358201;32;34920;-75
2022/07/07 11:40:26;;;;;;;3.53;2.33;;;;;;;26.00;35.88;99942.69;4359030;32;34953;-76
2022/07/07 11:43:22;;;;;;;2.72;2.25;;;;;;;27.05;34.50;99946.41;4347778;32;33987;-75
2022/07/07 11:46:09;;;;;;;3.00;2.12;;;;;;;26.38;34.22;99954.13;4347876;32;34693;-74
2022/07/07 11:48:56;;;;;;;5.18;2.60;;;;;;;25.95;34.34;99943.09;4358947;32;35957;-74
2022/07/07 11:51:44;;;;;;;3.08;2.12;;;;;;;25.52;35.45;99936.84;4358167;32;35349;-74
2022/07/07 11:54:31;;;;;;;2.20;2.00;;;;;;;25.84;35.80;99930.34;4348076;32;34304;-74
2022/07/07 11:57:29;;;;;;;3.08;2.10;;;;;;;26.35;35.41;99926.84;4347825;32;35543;-75
2022/07/07 12:00:24;;;;;;;4.70;2.22;;;;;;;27.03;33.47;99925.53;4342132;32;35917;-74
2022/07/07 12:03:11;;;;;;;3.55;2.12;;;;;;;26.39;35.01;99922.00;4356413;32;35726;-75
2022/07/07 12:05:58;;;;;;;4.20;2.70;;;;;;;27.52;33.95;99915.00;4345035;32;34333;-73
2022/07/07 12:08:45;;;;;;;2.95;2.40;;;;;;;27.86;33.31;99906.53;4347118;32;34596;-75
2022/07/07 12:11:31;;;;;;;3.97;2.28;;;;;;;26.76;35.34;99912.13;4357472;32;35049;-74
2022/07/07 12:14:18;;;;;;;3.08;2.50;;;;;;;27.30;36.10;99898.38;4358971;32;34879;-73
2022/07/07 12:17:04;;;;;;;4.82;2.70;;;;;;;27.79;33.07;99899.00;4354970;32;34180;-73
2022/07/07 12:19:50;;;;;;;3.28;2.47;;;;;;;26.71;35.74;99898.50;4358319;32;33571;-74
2022/07/07 12:22:40;;;;;;;4.53;3.05;;;;;;;26.34;35.71;99891.53;4347529;32;35914;-73
2022/07/07 12:25:30;;;;;;;3.42;2.62;;;;;;;25.99;36.64;99892.59;4346586;32;34377;-74
2022/07/07 12:28:33;;;;;;;2.85;2.58;;;;;;;25.57;37.04;99894.34;4348628;32;34344;-73
2022/07/07 12:31:21;;;;;;;3.70;2.33;;;;;;;25.87;36.52;99881.81;4341399;32;34603;-74
2022/07/07 12:34:12;;;;;;;2.70;2.10;;;;;;;26.54;36.61;99882.59;4357251;32;34599;-72
2022/07/07 12:36:59;;;;;;;3.22;2.30;;;;;;;25.86;37.49;99878.19;4344667;32;35714;-74
2022/07/07 12:40:03;;;;;;;3.33;2.58;;;;;;;25.98;37.38;99874.13;4340589;32;34384;-74
2022/07/07 12:42:49;;;;;;;3.85;2.40;;;;;;;27.29;35.33;99860.19;4354625;32;35695;-75
2022/07/07 12:45:36;;;;;;;3.30;2.40;;;;;;;26.43;35.75;99866.59;4356047;32;36142;-76
2022/07/07 12:48:22;;;;;;;3.22;2.50;;;;;;;25.71;37.79;99871.03;4340379;32;34854;-76
2022/07/07 12:51:09;;;;;;;3.40;2.20;;;;;;;25.91;37.55;99863.75;4358247;32;34020;-74
2022/07/07 12:53:57;;;;;;;4.18;2.50;;;;;;;26.15;37.25;99861.19;4346221;32;34669;-73
2022/07/07 12:56:43;;;;;;;3.97;2.30;;;;;;;26.77;36.52;99856.69;4358049;32;36013;-75
2022/07/07 12:59:40;;;;;;;4.00;2.15;;;;;;;25.90;37.91;99862.16;4357251;32;34873;-75
2022/07/07 13:02:26;;;;;;;3.35;2.25;;;;;;;26.23;37.33;99857.13;4338037;32;34370;-75
2022/07/07 13:05:13;;;;;;;4.20;2.70;;;;;;;25.80;39.02;99862.97;4331947;33;34658;-74
2022/07/07 13:07:59;;;;;;;5.93;2.40;;;;;;;25.66;37.88;99851.81;4334469;33;34761;-74
2022/07/07 13:10:45;;;;;;;5.05;2.50;;;;;;;27.13;36.22;99848.69;4327241;33;35759;-74
2022/07/07 13:13:32;;;;;;;3.55;2.30;;;;;;;27.86;35.51;99843.81;4336624;33;35223;-77